createdAt,value
2019-02-11T00:01:44.039Z,5.37
2019-02-11T00:04:13.262Z,3.55
2019-02-11T00:06:42.558Z,4.15
2019-02-11T00:09:11.746Z,6.93
2019-02-11T00:11:41.021Z,5.20
2019-02-11T00:14:10.256Z,8.62
2019-02-11T00:16:39.433Z,5.28
2019-02-11T00:19:11.024Z,6.42
2019-02-11T00:21:40.418Z,5.12
2019-02-11T00:24:09.672Z,5.37
2019-02-11T00:26:38.862Z,3.87
2019-02-11T00:29:08.073Z,6.55
2019-02-11T00:31:37.261Z,4.37
2019-02-11T00:34:06.507Z,9.53
2019-02-11T00:36:35.759Z,5.58
2019-02-11T00:39:06.458Z,5.12
2019-02-11T00:41:36.478Z,7.50
2019-02-11T00:44:05.682Z,4.37
2019-02-11T00:46:34.935Z,8.20
2019-02-11T00:49:05.106Z,7.60
2019-02-11T00:51:34.267Z,13.03
2019-02-11T00:54:03.473Z,7.65
2019-02-11T00:56:32.670Z,15.53
2019-02-11T00:59:01.857Z,10.25
2019-02-11T01:01:31.049Z,10.05
2019-02-11T01:04:00.299Z,7.87
2019-02-11T01:06:29.499Z,18.02
2019-02-11T01:08:58.683Z,19.80
2019-02-11T01:11:27.847Z,20.27
2019-02-11T01:13:57.015Z,8.55
2019-02-11T01:16:26.286Z,23.18
2019-02-11T01:18:55.695Z,16.72
2019-02-11T01:21:24.971Z,24.70
2019-02-11T01:23:54.142Z,22.20
2019-02-11T01:26:23.415Z,21.73
2019-02-11T01:28:52.718Z,17.87
2019-02-11T01:31:21.913Z,17.67
2019-02-11T01:33:51.083Z,14.30
2019-02-11T01:36:20.305Z,19.55
2019-02-11T01:38:49.577Z,16.05
2019-02-11T01:41:18.776Z,19.50
2019-02-11T01:43:47.948Z,18.70
2019-02-11T01:46:17.119Z,26.52
2019-02-11T01:48:46.299Z,17.45
2019-02-11T01:51:15.504Z,26.70
2019-02-11T01:53:44.752Z,21.95
2019-02-11T01:56:13.933Z,20.60
2019-02-11T01:58:43.113Z,25.25
2019-02-11T02:01:12.413Z,16.60
2019-02-11T02:03:41.654Z,24.50
2019-02-11T02:06:10.901Z,28.83
2019-02-11T02:08:40.115Z,15.03
2019-02-11T02:11:09.323Z,24.35
2019-02-11T02:13:44.586Z,26.12
2019-02-11T02:16:09.951Z,25.08
2019-02-11T02:18:39.132Z,25.52
2019-02-11T02:21:08.333Z,19.73
2019-02-11T02:23:37.575Z,24.07
2019-02-11T02:26:06.726Z,22.90
2019-02-11T02:28:35.938Z,29.05
2019-02-11T02:31:06.094Z,23.07
2019-02-11T02:33:35.317Z,21.05
2019-02-11T02:36:04.511Z,27.70
2019-02-11T02:38:33.734Z,22.45
2019-02-11T02:41:02.985Z,24.75
2019-02-11T02:43:32.186Z,37.05
2019-02-11T02:46:01.346Z,33.23
2019-02-11T02:48:30.589Z,15.23
2019-02-11T02:50:59.844Z,24.37
2019-02-11T02:53:29.088Z,28.10
2019-02-11T02:55:58.328Z,32.25
2019-02-11T02:58:27.604Z,24.92
2019-02-11T03:00:56.778Z,16.87
2019-02-11T03:03:25.950Z,21.87
2019-02-11T03:05:55.214Z,24.87
2019-02-11T03:08:24.457Z,23.10
2019-02-11T03:10:53.641Z,19.30
2019-02-11T03:13:22.822Z,26.77
2019-02-11T03:15:52.063Z,29.37
2019-02-11T03:18:21.322Z,23.92
2019-02-11T03:20:51.653Z,24.90
2019-02-11T03:23:20.901Z,21.52
2019-02-11T03:25:50.071Z,28.86
2019-02-11T03:28:19.259Z,27.87
2019-02-11T03:30:48.544Z,20.80
2019-02-11T03:33:17.790Z,27.35
2019-02-11T03:35:47.040Z,34.85
2019-02-11T03:38:16.251Z,23.18
2019-02-11T03:40:45.497Z,15.88
2019-02-11T03:43:14.703Z,22.87
2019-02-11T03:45:45.519Z,19.30
2019-02-11T03:48:14.774Z,26.30
2019-02-11T03:50:43.972Z,19.50
2019-02-11T03:53:13.221Z,19.23
2019-02-11T03:55:42.454Z,33.48
2019-02-11T03:58:12.634Z,28.15
2019-02-11T04:00:41.828Z,28.57
2019-02-11T04:03:11.095Z,21.57
2019-02-11T04:05:40.260Z,32.80
2019-02-11T04:08:09.444Z,29.18
2019-02-11T04:10:38.760Z,18.73
2019-02-11T04:13:08.006Z,24.90
2019-02-11T04:15:37.251Z,21.45
2019-02-11T04:18:06.444Z,18.25
2019-02-11T04:20:35.642Z,25.32
2019-02-11T04:23:05.322Z,40.33
2019-02-11T04:25:34.551Z,21.17
2019-02-11T04:28:03.765Z,28.87
2019-02-11T04:30:32.951Z,24.82
2019-02-11T04:33:02.156Z,29.18
2019-02-11T04:35:31.345Z,19.05
2019-02-11T04:38:00.559Z,22.02
2019-02-11T04:40:29.754Z,30.32
2019-02-11T04:42:58.936Z,34.30
2019-02-11T04:45:28.108Z,19.25
2019-02-11T04:47:57.696Z,24.12
2019-02-11T04:50:26.952Z,29.25
2019-02-11T04:52:56.184Z,19.32
2019-02-11T04:55:25.376Z,23.85
2019-02-11T04:57:54.656Z,26.52
2019-02-11T05:00:23.890Z,26.00
2019-02-11T05:02:53.131Z,23.30
2019-02-11T05:05:22.386Z,34.92
2019-02-11T05:07:51.713Z,29.52
2019-02-11T05:10:20.957Z,28.23
2019-02-11T05:12:50.145Z,25.23
2019-02-11T05:15:21.012Z,22.32
2019-02-11T05:17:51.490Z,32.78
2019-02-11T05:20:20.748Z,17.65
2019-02-11T05:22:50.053Z,30.92
2019-02-11T05:25:19.327Z,28.30
2019-02-11T05:27:48.994Z,28.57
2019-02-11T05:30:18.400Z,31.37
2019-02-11T05:32:47.668Z,21.42
2019-02-11T05:35:16.917Z,25.27
2019-02-11T05:37:46.103Z,23.07
2019-02-11T05:40:15.291Z,25.12
2019-02-11T05:42:44.453Z,24.95
2019-02-11T05:45:13.630Z,24.72
2019-02-11T05:47:42.933Z,27.55
2019-02-11T05:50:12.649Z,23.12
2019-02-11T05:52:42.047Z,23.22
2019-02-11T05:55:11.403Z,26.52
2019-02-11T05:57:41.651Z,24.60
2019-02-11T06:00:13.564Z,32.75
2019-02-11T06:02:42.837Z,27.65
2019-02-11T06:05:13.666Z,25.52
2019-02-11T06:07:45.572Z,19.42
2019-02-11T06:10:14.815Z,29.32
2019-02-11T06:12:45.054Z,27.98
2019-02-11T06:15:14.303Z,18.77
2019-02-11T06:17:43.781Z,19.25
2019-02-11T06:20:13.101Z,26.52
2019-02-11T06:22:42.367Z,31.02
2019-02-11T06:25:11.640Z,16.50
2019-02-11T06:27:40.897Z,29.10
2019-02-11T06:30:12.571Z,21.97
2019-02-11T06:32:41.843Z,24.05
2019-02-11T06:35:11.024Z,20.25
2019-02-11T06:37:43.255Z,21.40
2019-02-11T06:40:12.546Z,31.65
2019-02-11T06:42:46.305Z,25.88
2019-02-11T06:45:15.543Z,20.90
2019-02-11T06:47:48.188Z,24.05
2019-02-11T06:50:17.428Z,24.65
2019-02-11T06:52:48.237Z,19.23
2019-02-11T06:55:17.408Z,18.57
2019-02-11T06:57:46.602Z,24.63
2019-02-11T07:00:16.159Z,17.05
2019-02-11T07:02:45.429Z,26.17
2019-02-11T07:05:14.844Z,19.12
2019-02-11T07:07:44.122Z,16.93
2019-02-11T07:10:13.623Z,20.08
2019-02-11T07:12:42.815Z,23.25
2019-02-11T07:15:21.599Z,21.50
2019-02-11T07:17:47.343Z,15.78
2019-02-11T07:20:16.571Z,24.87
2019-02-11T07:22:45.745Z,16.75
2019-02-11T07:25:16.807Z,28.07
2019-02-11T07:27:46.167Z,19.53
2019-02-11T07:30:16.024Z,16.10
2019-02-11T07:32:47.080Z,23.18
2019-02-11T07:35:18.664Z,21.57
2019-02-11T07:37:48.116Z,15.53
2019-02-11T07:40:17.313Z,22.58
2019-02-11T07:42:48.541Z,15.40
2019-02-11T07:45:29.859Z,15.30
2019-02-11T07:47:53.464Z,18.07
2019-02-11T07:50:22.669Z,13.90
2019-02-11T07:52:51.997Z,17.62
2019-02-11T07:55:21.253Z,15.38
2019-02-11T07:57:50.515Z,24.10
2019-02-11T08:00:19.732Z,15.50
2019-02-11T08:02:49.622Z,17.17
2019-02-11T08:05:18.879Z,19.35
2019-02-11T08:07:48.131Z,20.82
2019-02-11T08:10:17.348Z,16.03
2019-02-11T08:12:47.668Z,20.27
2019-02-11T08:15:18.498Z,16.47
2019-02-11T08:17:47.698Z,17.40
2019-02-11T08:20:16.932Z,26.77
2019-02-11T08:22:46.102Z,18.05
2019-02-11T08:25:15.534Z,16.07
2019-02-11T08:27:47.510Z,15.03
2019-02-11T08:30:16.750Z,19.80
2019-02-11T08:32:45.909Z,18.40
2019-02-11T08:35:16.385Z,21.00
2019-02-11T08:37:45.569Z,22.82
2019-02-11T08:40:14.846Z,20.47
2019-02-11T08:42:44.018Z,25.97
2019-02-11T08:45:13.272Z,21.10
2019-02-11T08:47:42.604Z,21.05
2019-02-11T08:50:12.761Z,28.83
2019-02-11T08:52:42.686Z,22.05
2019-02-11T08:55:11.913Z,27.48
2019-02-11T08:57:41.092Z,23.90
2019-02-11T09:00:11.428Z,19.68
2019-02-11T09:02:40.670Z,19.55
2019-02-11T09:05:09.834Z,15.28
2019-02-11T09:07:39.096Z,17.80
2019-02-11T09:10:12.097Z,20.00
2019-02-11T09:12:41.436Z,22.35
2019-02-11T09:15:12.669Z,16.90
2019-02-11T09:17:41.856Z,17.40
2019-02-11T09:20:11.313Z,21.90
2019-02-11T09:22:40.550Z,26.20
2019-02-11T09:25:10.682Z,18.37
2019-02-11T09:27:39.920Z,11.55
2019-02-11T09:30:14.982Z,22.10
2019-02-11T09:32:44.160Z,15.95
2019-02-11T09:35:13.398Z,21.57
2019-02-11T09:37:42.607Z,23.87
2019-02-11T09:40:13.721Z,20.93
2019-02-11T09:42:43.990Z,19.90
2019-02-11T09:45:22.267Z,19.32
2019-02-11T09:47:51.451Z,25.57
2019-02-11T09:50:26.653Z,16.73
2019-02-11T09:52:55.936Z,19.32
2019-02-11T09:55:30.050Z,18.55
2019-02-11T09:57:59.241Z,17.60
2019-02-11T10:00:28.406Z,15.48
2019-02-11T10:02:57.577Z,19.85
2019-02-11T10:05:26.762Z,25.50
2019-02-11T10:07:55.993Z,21.73
2019-02-11T10:10:25.237Z,13.53
2019-02-11T10:12:55.555Z,23.07
2019-02-11T10:15:24.799Z,24.35
2019-02-11T10:17:54.017Z,27.85
2019-02-11T10:20:23.266Z,23.27
2019-02-11T10:22:52.517Z,16.30
2019-02-11T10:25:42.755Z,19.00
2019-02-11T10:28:12.563Z,32.20
2019-02-11T10:30:41.807Z,19.10
2019-02-11T10:33:11.078Z,22.17
2019-02-11T10:35:42.243Z,26.95
2019-02-11T10:38:11.194Z,18.32
2019-02-11T10:40:40.373Z,16.20
2019-02-11T10:43:09.620Z,29.82
2019-02-11T10:45:38.778Z,23.60
2019-02-11T10:48:09.026Z,16.40
2019-02-11T10:50:38.277Z,14.60
2019-02-11T10:53:07.560Z,23.10
2019-02-11T10:55:36.821Z,18.02
2019-02-11T10:58:06.125Z,25.27
2019-02-11T11:00:36.364Z,16.73
2019-02-11T11:03:05.686Z,17.25
2019-02-11T11:05:34.872Z,20.88
2019-02-11T11:08:24.767Z,23.38
2019-02-11T11:10:53.988Z,25.35
2019-02-11T11:13:23.291Z,14.13
2019-02-11T11:15:52.621Z,24.00
2019-02-11T11:18:24.512Z,9.28
2019-02-11T11:20:53.782Z,17.77
2019-02-11T11:23:23.026Z,19.62
2019-02-11T11:25:52.263Z,19.45
2019-02-11T11:28:21.464Z,19.87
2019-02-11T11:30:50.660Z,20.85
2019-02-11T11:33:20.303Z,11.97
2019-02-11T11:35:49.533Z,18.65
2019-02-11T11:38:18.799Z,16.70
2019-02-11T11:40:47.991Z,19.30
2019-02-11T11:43:17.160Z,15.58
2019-02-11T11:45:46.351Z,13.18
2019-02-11T11:48:15.683Z,16.87
2019-02-11T11:50:44.923Z,14.90
2019-02-11T11:53:14.187Z,12.70
2019-02-11T11:55:43.446Z,11.73
2019-02-11T11:58:12.702Z,19.45
2019-02-11T12:00:41.962Z,15.70
2019-02-11T12:03:11.441Z,12.28
2019-02-11T12:05:40.703Z,11.50
2019-02-11T12:08:09.959Z,8.15
2019-02-11T12:10:39.212Z,13.65
2019-02-11T12:13:21.643Z,17.85
2019-02-11T12:15:39.749Z,17.23
2019-02-11T12:18:09.016Z,21.75
2019-02-11T12:20:39.820Z,18.55
2019-02-11T12:23:09.071Z,19.03
2019-02-11T12:25:38.304Z,21.55
2019-02-11T12:28:07.513Z,19.73
2019-02-11T12:30:36.797Z,11.57
2019-02-11T12:33:06.031Z,16.25
2019-02-11T12:35:35.325Z,16.12
2019-02-11T12:38:05.050Z,14.58
2019-02-11T12:40:34.468Z,16.65
2019-02-11T12:43:03.832Z,15.03
2019-02-11T12:45:33.169Z,20.45
2019-02-11T12:48:02.489Z,12.70
2019-02-11T12:50:32.862Z,16.95
2019-02-11T12:53:02.171Z,12.30
2019-02-11T12:55:31.593Z,14.07
2019-02-11T12:58:00.965Z,8.75
2019-02-11T13:00:30.253Z,13.00
2019-02-11T13:02:59.431Z,14.83
2019-02-11T13:05:44.307Z,22.87
2019-02-11T13:07:59.600Z,17.80
2019-02-11T13:10:29.922Z,13.43
2019-02-11T13:12:59.380Z,20.77
2019-02-11T13:15:56.892Z,25.08
2019-02-11T13:17:59.657Z,15.00
2019-02-11T13:20:28.862Z,18.37
2019-02-11T13:22:58.151Z,16.10
2019-02-11T13:25:27.418Z,13.95
2019-02-11T13:27:56.780Z,16.93
2019-02-11T13:30:26.311Z,23.15
2019-02-11T13:32:55.595Z,19.23
2019-02-11T13:35:27.521Z,18.42
2019-02-11T13:37:56.860Z,20.30
2019-02-11T13:40:26.164Z,24.60
2019-02-11T13:42:58.082Z,20.97
2019-02-11T13:45:27.336Z,23.45
2019-02-11T13:47:58.428Z,16.57
2019-02-11T13:50:27.980Z,32.17
2019-02-11T13:52:57.485Z,18.95
2019-02-11T13:55:30.673Z,19.70
2019-02-11T13:57:59.078Z,24.60
2019-02-11T14:00:29.956Z,25.05
2019-02-11T14:03:00.999Z,19.87
2019-02-11T14:05:30.571Z,23.15
2019-02-11T14:08:01.984Z,16.15
2019-02-11T14:13:00.043Z,18.90
2019-02-11T14:15:29.289Z,26.07
2019-02-11T14:18:14.292Z,21.68
2019-02-11T14:20:42.298Z,25.17
2019-02-11T14:23:11.573Z,19.77
2019-02-11T14:25:45.911Z,23.98
2019-02-11T14:28:11.717Z,33.78
2019-02-11T14:30:40.917Z,23.55
2019-02-11T14:33:10.224Z,21.18
2019-02-11T14:35:39.679Z,24.77
2019-02-11T14:38:09.084Z,23.60
2019-02-11T14:40:40.117Z,20.17
2019-02-11T14:43:09.569Z,27.27
2019-02-11T14:45:39.177Z,32.30
2019-02-11T14:48:08.546Z,26.42
2019-02-11T14:50:39.115Z,22.75
2019-02-11T14:53:08.360Z,22.73
2019-02-11T14:55:37.765Z,32.20
2019-02-11T14:58:07.018Z,21.50
2019-02-11T15:00:36.211Z,21.70
2019-02-11T15:03:05.458Z,24.52
2019-02-11T15:05:34.708Z,30.00
2019-02-11T15:08:03.897Z,24.00
2019-02-11T15:10:33.071Z,24.67
2019-02-11T15:13:02.274Z,25.52
2019-02-11T15:15:31.463Z,23.02
2019-02-11T15:18:00.702Z,22.77
2019-02-11T15:20:29.910Z,18.05
2019-02-11T15:22:59.145Z,24.25
2019-02-11T15:25:28.337Z,18.30
2019-02-11T15:27:57.585Z,30.62
2019-02-11T15:30:26.809Z,23.40
2019-02-11T15:32:57.198Z,18.85
2019-02-11T15:35:26.454Z,31.97
2019-02-11T15:37:55.629Z,21.37
2019-02-11T15:40:24.941Z,22.00
2019-02-11T15:42:54.106Z,30.80
2019-02-11T15:45:23.481Z,27.22
2019-02-11T15:47:52.676Z,28.40
2019-02-11T15:50:21.937Z,26.80
2019-02-11T15:52:51.132Z,23.65
2019-02-11T15:55:20.907Z,36.08
2019-02-11T15:57:50.181Z,20.30
2019-02-11T16:00:21.178Z,28.92
2019-02-11T16:02:51.762Z,20.10
2019-02-11T16:05:21.283Z,14.18
2019-02-11T16:07:50.561Z,20.25
2019-02-11T16:10:25.522Z,19.17
2019-02-11T16:12:54.705Z,23.22
2019-02-11T16:15:23.880Z,15.53
2019-02-11T16:17:53.732Z,27.73
2019-02-11T16:20:22.935Z,23.03
2019-02-11T16:22:52.244Z,25.35
2019-02-11T16:25:21.448Z,21.37
2019-02-11T16:27:50.612Z,28.77
2019-02-11T16:30:20.146Z,29.37
2019-02-11T16:32:49.380Z,23.18
2019-02-11T16:35:18.821Z,20.90
2019-02-11T16:37:48.029Z,31.48
2019-02-11T16:40:26.105Z,20.90
2019-02-11T16:42:55.362Z,28.23
2019-02-11T16:45:24.585Z,27.75
2019-02-11T16:47:53.869Z,28.73
2019-02-11T16:50:23.033Z,25.72
2019-02-11T16:52:52.321Z,19.80
2019-02-11T16:55:21.539Z,28.50
2019-02-11T16:57:50.798Z,18.75
2019-02-11T17:00:20.593Z,20.60
2019-02-11T17:02:50.043Z,21.40
2019-02-11T17:05:19.315Z,24.87
2019-02-11T17:07:48.491Z,23.02
2019-02-11T17:10:17.742Z,21.40
2019-02-11T17:12:46.938Z,29.75
2019-02-11T17:15:20.451Z,17.98
2019-02-11T17:17:49.688Z,23.87
2019-02-11T17:20:18.879Z,23.65
2019-02-11T17:22:48.073Z,29.18
2019-02-11T17:25:18.338Z,22.17
2019-02-11T17:27:47.650Z,28.32
2019-02-11T17:30:22.836Z,27.85
2019-02-11T17:32:52.201Z,25.25
2019-02-11T17:35:21.488Z,30.23
2019-02-11T17:37:50.703Z,27.15
2019-02-11T17:40:20.233Z,32.88
2019-02-11T17:42:49.615Z,23.35
2019-02-11T17:45:21.196Z,29.82
2019-02-11T17:47:50.508Z,22.40
2019-02-11T17:50:19.719Z,40.70
2019-02-11T17:52:51.010Z,23.38
2019-02-11T17:55:20.257Z,24.27
2019-02-11T17:57:49.426Z,35.23
2019-02-11T18:00:29.399Z,25.20
2019-02-11T18:02:58.657Z,20.05
2019-02-11T18:05:27.871Z,21.20
2019-02-11T18:07:57.209Z,27.13
2019-02-11T18:10:26.536Z,28.38
2019-02-11T18:12:55.791Z,29.10
2019-02-11T18:15:24.957Z,25.50
2019-02-11T18:17:54.167Z,21.85
2019-02-11T18:20:23.425Z,30.60
2019-02-11T18:22:52.609Z,18.82
2019-02-11T18:25:21.861Z,26.40
2019-02-11T18:27:51.154Z,22.70
2019-02-11T18:30:20.524Z,21.27
2019-02-11T18:32:49.932Z,33.73
2019-02-11T18:35:21.280Z,27.48
2019-02-11T18:37:50.562Z,20.80
2019-02-11T18:40:19.735Z,25.85
2019-02-11T18:42:49.157Z,27.98
2019-02-11T18:45:18.565Z,29.60
2019-02-11T18:47:47.797Z,28.25
2019-02-11T18:50:17.020Z,28.05
2019-02-11T18:52:46.347Z,24.27
2019-02-11T18:55:21.419Z,30.57
2019-02-11T18:57:57.852Z,25.48
2019-02-11T19:00:27.134Z,26.10
2019-02-11T19:02:56.450Z,31.82
2019-02-11T19:05:25.624Z,34.08
2019-02-11T19:07:54.889Z,30.10
2019-02-11T19:10:24.169Z,28.63
2019-02-11T19:12:56.070Z,22.40
2019-02-11T19:15:25.255Z,31.85
2019-02-11T19:17:54.598Z,28.95
2019-02-11T19:20:23.803Z,33.23
2019-02-11T19:22:53.055Z,31.05
2019-02-11T19:25:22.237Z,31.17
2019-02-11T19:27:51.597Z,29.65
2019-02-11T19:30:25.389Z,31.07
2019-02-11T19:32:54.636Z,29.42
2019-02-11T19:35:23.832Z,28.05
2019-02-11T19:37:53.173Z,29.70
2019-02-11T19:40:22.543Z,30.72
2019-02-11T19:42:52.100Z,40.63
2019-02-11T19:45:23.654Z,39.33
2019-02-11T19:47:52.976Z,24.18
2019-02-11T19:50:22.173Z,45.30
2019-02-11T19:52:51.476Z,28.02
2019-02-11T19:55:20.725Z,25.27
2019-02-11T19:57:49.969Z,29.25
2019-02-11T20:00:21.197Z,23.90
2019-02-11T20:02:50.653Z,24.30
2019-02-11T20:05:20.150Z,34.03
2019-02-11T20:07:49.493Z,27.60
2019-02-11T20:10:22.982Z,27.55
2019-02-11T20:12:52.218Z,31.30
2019-02-11T20:15:24.145Z,24.87
2019-02-11T20:17:53.363Z,28.12
2019-02-11T20:20:23.134Z,18.82
2019-02-11T20:22:52.306Z,27.65
2019-02-11T20:25:21.524Z,26.45
2019-02-11T20:27:50.772Z,30.48
2019-02-11T20:30:28.643Z,34.10
2019-02-11T20:32:57.809Z,33.02
2019-02-11T20:35:27.301Z,23.47
2019-02-11T20:37:56.550Z,34.08
2019-02-11T20:40:28.138Z,31.23
2019-02-11T20:45:29.357Z,29.10
2019-02-11T20:47:58.651Z,33.83
2019-02-11T20:50:27.884Z,27.93
2019-02-11T20:52:57.115Z,27.73
2019-02-11T20:55:26.292Z,32.75
2019-02-11T20:57:58.277Z,34.67
2019-02-11T21:00:28.768Z,42.38
2019-02-11T21:02:58.080Z,38.00
2019-02-11T21:05:27.438Z,28.83
2019-02-11T21:07:56.735Z,39.08
2019-02-11T21:10:26.408Z,24.40
2019-02-11T21:12:55.604Z,32.90
2019-02-11T21:15:24.938Z,26.90
2019-02-11T21:17:55.219Z,34.25
2019-02-11T21:20:29.995Z,31.12
2019-02-11T21:22:59.452Z,30.45
2019-02-11T21:25:28.711Z,29.80
2019-02-11T21:27:57.967Z,33.23
2019-02-11T21:30:27.148Z,30.92
2019-02-11T21:32:56.348Z,32.30
2019-02-11T21:35:25.531Z,27.55
2019-02-11T21:37:54.776Z,39.65
2019-02-11T21:40:24.045Z,41.86
2019-02-11T21:42:53.298Z,41.48
2019-02-11T21:45:22.464Z,34.65
2019-02-11T21:47:51.655Z,37.63
2019-02-11T21:50:26.655Z,33.03
2019-02-11T21:55:24.352Z,32.40
2019-02-11T21:57:55.273Z,36.15
2019-02-11T22:00:27.328Z,43.83
2019-02-11T22:05:25.265Z,33.13
2019-02-11T22:07:54.462Z,32.90
2019-02-11T22:10:23.840Z,28.35
2019-02-11T22:12:53.074Z,41.48
2019-02-11T22:15:22.393Z,38.88
2019-02-11T22:17:51.572Z,37.40
2019-02-11T22:20:22.019Z,30.17
2019-02-11T22:22:51.203Z,27.98
2019-02-11T22:25:21.440Z,36.67
2019-02-11T22:27:50.611Z,32.95
2019-02-11T22:30:23.098Z,27.75
2019-02-11T22:32:52.312Z,34.80
2019-02-11T22:35:21.573Z,31.87
2019-02-11T22:37:51.396Z,45.60
2019-02-11T22:40:20.624Z,34.87
2019-02-11T22:42:49.794Z,37.10
2019-02-11T22:45:21.875Z,45.35
2019-02-11T22:47:51.037Z,37.93
2019-02-11T22:50:20.274Z,36.37
2019-02-11T22:52:49.490Z,34.38
2019-02-11T22:55:18.653Z,39.35
2019-02-11T22:57:47.828Z,25.70
2019-02-11T23:00:42.183Z,27.00
2019-02-11T23:03:13.360Z,29.90
2019-02-11T23:05:42.688Z,28.98
2019-02-11T23:08:11.852Z,31.87
2019-02-11T23:10:41.071Z,23.95
2019-02-11T23:13:10.297Z,34.18
2019-02-11T23:15:39.464Z,24.57
2019-02-11T23:18:10.289Z,32.25
2019-02-11T23:20:39.451Z,33.60
2019-02-11T23:23:08.640Z,45.00
2019-02-11T23:25:37.860Z,32.13
2019-02-11T23:28:07.084Z,44.63
2019-02-11T23:30:36.260Z,38.65
2019-02-11T23:33:05.459Z,36.42
2019-02-11T23:35:34.767Z,42.03
2019-02-11T23:38:03.968Z,38.50
2019-02-11T23:40:33.151Z,44.45
2019-02-11T23:43:02.324Z,23.85
2019-02-11T23:45:31.502Z,50.85
2019-02-11T23:48:00.698Z,28.20
2019-02-11T23:50:29.930Z,37.98
2019-02-11T23:53:00.181Z,35.85
2019-02-11T23:55:29.350Z,34.73
2019-02-11T23:57:58.530Z,30.62
